CPA238 EGLL-VHHH
Flight info
| Callsign | CPA238 |
|---|---|
| Flight time | N/A |
| Altitude | 33000 |
| Route | DET L6 DVR UL9 KONAN DCT KOK DCT DENOX DCT MATUG DCT AMASI DCT BOMBI DCT TENLO DCT DEXIT DCT BEGLA DCT BALUX/N0487F350 DCT BKS DCT EVRIK DCT EMPOS DCT IRLOX DCT OPT DCT LUGEB DCT UDROS DCT BAMUP DCT ROLIN DCT FOQUS DCT LAGAS DCT DISKA M737 VERCA M747 SUBUT T916 BALUN/K0909F370 T916 KUNAS N193 SR L163 TISIB L141 KAMUD/K0896S1130 W186 SADAN Y1 SUNPU/K0896S1190 Y1 OMBON W245 OVRAL B330 KWE W181 DUDIT A599 POU R473 SIERA |
| Aircraft | A35K/H-SDE2E3GHIJ3J4J5LM1ORWXY/LB1D1 |
Departure
| Time | N/A |
|---|---|
| Airport | London Heathrow Airport (EGLL) |
Arrival
| Time | 2026-05-06 17:31 |
|---|---|
| Airport | Hong Kong International Airport (VHHH) |
| Time | Latitude | Longitude | Altitude | Speed | Heading |
|---|---|---|---|---|---|
| 2026-05-06 16:42 | 23.60171 | 109.96000 | 36925 ft | 540 kts | 102° |
| 2026-05-06 16:43 | 23.58819 | 110.02702 | 36931 ft | 540 kts | 102° |
| 2026-05-06 16:43 | 23.56938 | 110.11998 | 36929 ft | 541 kts | 102° |
| 2026-05-06 16:44 | 23.55313 | 110.20003 | 36929 ft | 541 kts | 102° |
| 2026-05-06 16:44 | 23.53958 | 110.26660 | 36929 ft | 541 kts | 102° |
| 2026-05-06 16:45 | 23.52047 | 110.36025 | 36922 ft | 541 kts | 103° |
| 2026-05-06 16:45 | 23.50685 | 110.42680 | 36921 ft | 541 kts | 103° |
| 2026-05-06 16:46 | 23.49044 | 110.50680 | 36921 ft | 541 kts | 103° |
| 2026-05-06 16:46 | 23.47397 | 110.58686 | 36925 ft | 541 kts | 103° |
| 2026-05-06 16:47 | 23.45746 | 110.66692 | 36926 ft | 541 kts | 103° |
| 2026-05-06 16:47 | 23.44092 | 110.74689 | 36924 ft | 541 kts | 103° |
| 2026-05-06 16:48 | 23.42433 | 110.82689 | 36922 ft | 541 kts | 103° |
| 2026-05-06 16:48 | 23.40771 | 110.90683 | 36928 ft | 541 kts | 103° |
| 2026-05-06 16:49 | 23.39104 | 110.98675 | 36926 ft | 541 kts | 103° |
| 2026-05-06 16:49 | 23.37434 | 111.06661 | 36932 ft | 541 kts | 103° |
| 2026-05-06 16:50 | 23.35762 | 111.14639 | 36930 ft | 541 kts | 103° |
| 2026-05-06 16:50 | 23.34096 | 111.22564 | 36930 ft | 540 kts | 103° |
| 2026-05-06 16:51 | 23.32416 | 111.30535 | 36931 ft | 540 kts | 103° |
| 2026-05-06 16:51 | 23.30734 | 111.38498 | 36936 ft | 540 kts | 103° |
| 2026-05-06 16:52 | 23.29048 | 111.46455 | 36942 ft | 540 kts | 103° |
| 2026-05-06 16:52 | 23.27358 | 111.54414 | 36939 ft | 540 kts | 103° |
| 2026-05-06 16:53 | 23.25664 | 111.62366 | 36942 ft | 540 kts | 103° |
| 2026-05-06 16:53 | 23.23968 | 111.70309 | 36948 ft | 539 kts | 103° |
| 2026-05-06 16:54 | 23.22266 | 111.78261 | 36946 ft | 539 kts | 103° |
| 2026-05-06 16:54 | 23.20553 | 111.86229 | 36954 ft | 544 kts | 102° |
| 2026-05-06 16:55 | 23.18825 | 111.94265 | 36951 ft | 547 kts | 102° |
| 2026-05-06 16:55 | 23.17088 | 112.02324 | 36956 ft | 548 kts | 102° |
| 2026-05-06 16:56 | 23.15345 | 112.10383 | 36953 ft | 548 kts | 102° |
| 2026-05-06 16:56 | 23.13596 | 112.18444 | 36959 ft | 548 kts | 102° |
| 2026-05-06 16:57 | 23.11842 | 112.26506 | 36957 ft | 549 kts | 102° |
| 2026-05-06 16:57 | 23.10082 | 112.34580 | 36953 ft | 549 kts | 102° |
| 2026-05-06 16:58 | 23.08317 | 112.42656 | 36951 ft | 549 kts | 102° |
| 2026-05-06 16:58 | 23.06917 | 112.50789 | 36957 ft | 548 kts | 94° |
| 2026-05-06 16:59 | 23.06265 | 112.59037 | 36949 ft | 548 kts | 92° |
| 2026-05-06 16:59 | 23.05727 | 112.67242 | 36955 ft | 549 kts | 92° |
| 2026-05-06 17:00 | 23.05187 | 112.75519 | 36948 ft | 549 kts | 92° |
| 2026-05-06 17:00 | 23.04630 | 112.83787 | 36948 ft | 549 kts | 92° |
| 2026-05-06 17:01 | 23.04060 | 112.92061 | 36949 ft | 550 kts | 92° |
| 2026-05-06 17:01 | 23.03483 | 113.00343 | 36951 ft | 550 kts | 92° |
| 2026-05-06 17:02 | 23.02686 | 113.08609 | 36909 ft | 552 kts | 101° |
| 2026-05-06 17:02 | 23.01589 | 113.12586 | 36670 ft | 552 kts | 112° |
| 2026-05-06 17:02 | 22.99829 | 113.16260 | 36433 ft | 551 kts | 125° |
| 2026-05-06 17:02 | 22.97426 | 113.19504 | 36184 ft | 548 kts | 137° |
| 2026-05-06 17:03 | 22.94518 | 113.22133 | 35949 ft | 543 kts | 150° |
| 2026-05-06 17:03 | 22.91228 | 113.24075 | 35707 ft | 535 kts | 162° |
| 2026-05-06 17:03 | 22.87708 | 113.25279 | 35463 ft | 526 kts | 174° |
| 2026-05-06 17:03 | 22.84156 | 113.25864 | 35236 ft | 524 kts | 176° |
| 2026-05-06 17:04 | 22.80572 | 113.26749 | 35013 ft | 530 kts | 169° |
| 2026-05-06 17:04 | 22.77023 | 113.27830 | 34675 ft | 528 kts | 169° |
| 2026-05-06 17:04 | 22.73498 | 113.28964 | 33979 ft | 529 kts | 168° |
| 2026-05-06 17:04 | 22.69978 | 113.30142 | 33118 ft | 531 kts | 167° |
| 2026-05-06 17:05 | 22.66452 | 113.31350 | 32291 ft | 532 kts | 166° |
| 2026-05-06 17:05 | 22.62917 | 113.32576 | 31448 ft | 534 kts | 166° |
| 2026-05-06 17:05 | 22.59370 | 113.33813 | 30545 ft | 537 kts | 166° |
| 2026-05-06 17:05 | 22.55801 | 113.35055 | 29565 ft | 541 kts | 165° |
| 2026-05-06 17:06 | 22.52227 | 113.36296 | 28815 ft | 537 kts | 165° |
| 2026-05-06 17:06 | 22.48684 | 113.37526 | 28130 ft | 532 kts | 165° |
| 2026-05-06 17:06 | 22.45169 | 113.38744 | 27447 ft | 528 kts | 165° |
| 2026-05-06 17:06 | 22.41683 | 113.39949 | 26797 ft | 523 kts | 165° |
| 2026-05-06 17:07 | 22.38230 | 113.41140 | 26131 ft | 519 kts | 165° |
| 2026-05-06 17:07 | 22.34812 | 113.42319 | 25461 ft | 507 kts | 165° |
| 2026-05-06 17:07 | 22.31538 | 113.43452 | 24841 ft | 484 kts | 166° |
| 2026-05-06 17:07 | 22.28341 | 113.44555 | 24228 ft | 482 kts | 166° |
| 2026-05-06 17:08 | 22.25156 | 113.45649 | 23612 ft | 480 kts | 166° |
| 2026-05-06 17:08 | 22.21976 | 113.46738 | 22910 ft | 477 kts | 166° |
| 2026-05-06 17:08 | 22.18827 | 113.47858 | 22247 ft | 474 kts | 164° |
| 2026-05-06 17:08 | 22.15767 | 113.48987 | 21626 ft | 469 kts | 164° |
| 2026-05-06 17:09 | 22.12692 | 113.50123 | 21011 ft | 464 kts | 164° |
| 2026-05-06 17:09 | 22.09657 | 113.51241 | 20594 ft | 455 kts | 164° |
| 2026-05-06 17:09 | 22.06714 | 113.52326 | 20453 ft | 435 kts | 164° |
| 2026-05-06 17:09 | 22.03969 | 113.53339 | 20314 ft | 400 kts | 164° |
| 2026-05-06 17:10 | 22.01428 | 113.54274 | 20154 ft | 372 kts | 165° |
| 2026-05-06 17:10 | 21.98987 | 113.55166 | 19999 ft | 372 kts | 165° |
| 2026-05-06 17:10 | 21.96540 | 113.56116 | 19591 ft | 376 kts | 161° |
| 2026-05-06 17:10 | 21.94131 | 113.57238 | 19116 ft | 378 kts | 159° |
| 2026-05-06 17:11 | 21.91727 | 113.58386 | 18666 ft | 378 kts | 159° |
| 2026-05-06 17:11 | 21.89311 | 113.59525 | 18233 ft | 379 kts | 159° |
| 2026-05-06 17:11 | 21.86925 | 113.60638 | 17748 ft | 378 kts | 159° |
| 2026-05-06 17:11 | 21.84513 | 113.61757 | 17295 ft | 377 kts | 160° |
| 2026-05-06 17:12 | 21.82081 | 113.62881 | 16855 ft | 375 kts | 160° |
| 2026-05-06 17:12 | 21.79720 | 113.63969 | 16429 ft | 373 kts | 160° |
| 2026-05-06 17:12 | 21.77345 | 113.65062 | 15991 ft | 370 kts | 160° |
| 2026-05-06 17:12 | 21.74989 | 113.66145 | 15564 ft | 367 kts | 160° |
| 2026-05-06 17:13 | 21.72649 | 113.67220 | 15139 ft | 364 kts | 160° |
| 2026-05-06 17:13 | 21.70334 | 113.68285 | 14707 ft | 361 kts | 160° |
| 2026-05-06 17:13 | 21.68141 | 113.69588 | 14271 ft | 363 kts | 145° |
| 2026-05-06 17:13 | 21.66479 | 113.71625 | 13850 ft | 366 kts | 121° |
| 2026-05-06 17:14 | 21.65686 | 113.74212 | 13361 ft | 368 kts | 97° |
| 2026-05-06 17:14 | 21.65916 | 113.76921 | 13017 ft | 366 kts | 72° |
| 2026-05-06 17:14 | 21.67096 | 113.79306 | 12558 ft | 361 kts | 48° |
| 2026-05-06 17:14 | 21.69026 | 113.80963 | 12095 ft | 353 kts | 24° |
| 2026-05-06 17:15 | 21.71333 | 113.81694 | 11681 ft | 343 kts | 2° |
| 2026-05-06 17:15 | 21.73590 | 113.81701 | 11244 ft | 338 kts | 356° |
| 2026-05-06 17:19 | 21.75572 | 113.81926 | 10931 ft | 340 kts | 12° |
| 2026-05-06 17:19 | 21.77692 | 113.83059 | 10596 ft | 345 kts | 35° |
| 2026-05-06 17:19 | 21.79523 | 113.84736 | 10316 ft | 343 kts | 41° |
| 2026-05-06 17:20 | 21.81242 | 113.86448 | 10147 ft | 331 kts | 41° |
| 2026-05-06 17:20 | 21.82922 | 113.88080 | 9951 ft | 320 kts | 38° |
| 2026-05-06 17:20 | 21.84833 | 113.89207 | 9575 ft | 310 kts | 12° |
| 2026-05-06 17:20 | 21.86936 | 113.89294 | 9116 ft | 297 kts | 345° |
| 2026-05-06 17:21 | 21.88831 | 113.88558 | 8649 ft | 288 kts | 332° |
| 2026-05-06 17:21 | 21.90644 | 113.87632 | 8342 ft | 289 kts | 332° |
| 2026-05-06 17:21 | 21.92440 | 113.86712 | 8062 ft | 288 kts | 332° |
| 2026-05-06 17:21 | 21.94272 | 113.85782 | 7811 ft | 291 kts | 332° |
| 2026-05-06 17:22 | 21.96097 | 113.84863 | 7495 ft | 288 kts | 333° |
| 2026-05-06 17:22 | 21.97912 | 113.83959 | 7189 ft | 287 kts | 333° |
| 2026-05-06 17:22 | 21.99354 | 113.83241 | 6954 ft | 287 kts | 333° |
| 2026-05-06 17:22 | 22.01145 | 113.82347 | 6669 ft | 287 kts | 333° |
| 2026-05-06 17:23 | 22.02952 | 113.81443 | 6379 ft | 286 kts | 333° |
| 2026-05-06 17:23 | 22.04754 | 113.80542 | 6075 ft | 285 kts | 333° |
| 2026-05-06 17:23 | 22.06550 | 113.79647 | 5784 ft | 284 kts | 333° |
| 2026-05-06 17:23 | 22.08342 | 113.78755 | 5500 ft | 283 kts | 333° |
| 2026-05-06 17:24 | 22.10130 | 113.77864 | 5204 ft | 282 kts | 333° |
| 2026-05-06 17:24 | 22.11919 | 113.76981 | 4921 ft | 282 kts | 334° |
| 2026-05-06 17:24 | 22.13688 | 113.76099 | 4652 ft | 278 kts | 334° |
| 2026-05-06 17:24 | 22.15408 | 113.75236 | 4474 ft | 267 kts | 334° |
| 2026-05-06 17:25 | 22.17042 | 113.74419 | 4235 ft | 249 kts | 334° |
| 2026-05-06 17:25 | 22.18563 | 113.73659 | 3975 ft | 233 kts | 334° |
| 2026-05-06 17:25 | 22.19987 | 113.72954 | 3703 ft | 219 kts | 335° |
| 2026-05-06 17:25 | 22.21425 | 113.72630 | 3458 ft | 211 kts | 8° |
| 2026-05-06 17:26 | 22.22772 | 113.73198 | 3370 ft | 208 kts | 33° |
| 2026-05-06 17:26 | 22.23964 | 113.74034 | 3306 ft | 200 kts | 36° |
| 2026-05-06 17:26 | 22.25114 | 113.74868 | 3049 ft | 198 kts | 36° |
| 2026-05-06 17:26 | 22.26209 | 113.75744 | 2986 ft | 195 kts | 49° |
| 2026-05-06 17:27 | 22.27012 | 113.76874 | 2865 ft | 186 kts | 67° |
| 2026-05-06 17:27 | 22.27402 | 113.78193 | 2474 ft | 184 kts | 78° |
| 2026-05-06 17:27 | 22.27760 | 113.79503 | 2082 ft | 180 kts | 73° |
| 2026-05-06 17:27 | 22.28176 | 113.80716 | 1864 ft | 166 kts | 72° |
| 2026-05-06 17:28 | 22.28542 | 113.81845 | 1706 ft | 153 kts | 73° |
| 2026-05-06 17:28 | 22.28879 | 113.82910 | 1454 ft | 147 kts | 73° |
| 2026-05-06 17:28 | 22.29207 | 113.83923 | 1201 ft | 139 kts | 73° |
| 2026-05-06 17:28 | 22.29517 | 113.84885 | 957 ft | 133 kts | 72° |
| 2026-05-06 17:29 | 22.29808 | 113.85806 | 807 ft | 129 kts | 72° |
| 2026-05-06 17:29 | 22.30113 | 113.86718 | 691 ft | 131 kts | 71° |
| 2026-05-06 17:29 | 22.30408 | 113.87640 | 517 ft | 131 kts | 73° |
| 2026-05-06 17:29 | 22.30700 | 113.88569 | 321 ft | 133 kts | 71° |
| 2026-05-06 17:30 | 22.30999 | 113.89502 | 144 ft | 130 kts | 72° |
| 2026-05-06 17:30 | 22.31282 | 113.90382 | 43 ft | 128 kts | 71° |
| 2026-05-06 17:30 | 22.31550 | 113.91212 | 45 ft | 96 kts | 70° |
| 2026-05-06 17:30 | 22.31706 | 113.91697 | 43 ft | 50 kts | 71° |
| 2026-05-06 17:31 | 22.31783 | 113.91938 | 42 ft | 30 kts | 75° |
| 2026-05-06 17:31 | 22.31789 | 113.92157 | 43 ft | 28 kts | 99° |
| 2026-05-06 17:31 | 22.31773 | 113.92246 | 43 ft | 1 kts | 101° |
| 2026-05-06 17:31 | 22.31772 | 113.92252 | 43 ft | 0 kts | 101° |
| 2026-05-06 17:32 | 22.31771 | 113.92259 | 43 ft | 1 kts | 101° |
| 2026-05-06 17:33 | 22.31770 | 113.92264 | 43 ft | 0 kts | 101° |
| 2026-05-06 17:33 | 22.31768 | 113.92273 | 43 ft | 0 kts | 101° |
| 2026-05-06 17:35 | 22.31764 | 113.92300 | 43 ft | 6 kts | 101° |
| 2026-05-06 17:35 | 22.31751 | 113.92365 | 43 ft | 11 kts | 106° |
| 2026-05-06 17:36 | 22.31623 | 113.92484 | 43 ft | 15 kts | 129° |
| 2026-05-06 17:36 | 22.31574 | 113.92583 | 43 ft | 16 kts | 118° |
| 2026-05-06 17:36 | 22.31526 | 113.92688 | 43 ft | 11 kts | 116° |
| 2026-05-06 17:36 | 22.31517 | 113.92706 | 43 ft | 0 kts | 115° |
| 2026-05-06 17:38 | 22.31517 | 113.92707 | 43 ft | 1 kts | 115° |
| 2026-05-06 17:38 | 22.31510 | 113.92723 | 43 ft | 5 kts | 115° |
| 2026-05-06 17:38 | 22.31497 | 113.92766 | 43 ft | 7 kts | 98° |
| 2026-05-06 17:38 | 22.31504 | 113.92830 | 42 ft | 10 kts | 75° |
| 2026-05-06 17:39 | 22.31528 | 113.92911 | 43 ft | 12 kts | 72° |
| 2026-05-06 17:39 | 22.31552 | 113.92991 | 43 ft | 9 kts | 72° |
| 2026-05-06 17:39 | 22.31551 | 113.93024 | 43 ft | 1 kts | 117° |
| 2026-05-06 17:39 | 22.31540 | 113.93035 | 43 ft | 3 kts | 141° |
| 2026-05-06 17:40 | 22.31510 | 113.93052 | 43 ft | 5 kts | 156° |
| 2026-05-06 17:40 | 22.31496 | 113.93059 | 43 ft | 3 kts | 159° |
| 2026-05-06 17:40 | 22.31483 | 113.93064 | 43 ft | 2 kts | 159° |
| 2026-05-06 17:40 | 22.31479 | 113.93066 | 43 ft | 0 kts | 159° |